createdAt,value
2023-04-18T00:00:29.107Z,18.20
2023-04-18T00:05:33.230Z,19.77
2023-04-18T00:10:35.959Z,21.85
2023-04-18T00:15:38.795Z,22.15
2023-04-18T00:20:42.863Z,30.98
2023-04-18T00:25:45.614Z,26.83
2023-04-18T00:30:48.852Z,16.95
2023-04-18T00:35:53.197Z,22.00
2023-04-18T00:40:55.952Z,18.40
2023-04-18T00:46:01.421Z,19.15
2023-04-18T00:51:06.464Z,25.98
2023-04-18T00:56:09.511Z,18.63
2023-04-18T01:01:13.378Z,23.63
2023-04-18T01:06:17.700Z,20.33
2023-04-18T01:11:20.584Z,19.05
2023-04-18T01:16:23.683Z,20.02
2023-04-18T01:21:31.058Z,19.85
2023-04-18T01:31:41.798Z,20.92
2023-04-18T01:36:44.777Z,25.42
2023-04-18T01:41:48.978Z,19.52
2023-04-18T01:46:53.340Z,29.95
2023-04-18T01:51:56.135Z,28.42
2023-04-18T01:57:00.362Z,25.38
2023-04-18T02:02:03.378Z,27.77
2023-04-18T02:07:06.306Z,27.55
2023-04-18T02:12:12.502Z,29.40
2023-04-18T02:17:15.300Z,37.03
2023-04-18T02:22:18.625Z,29.35
2023-04-18T02:27:22.974Z,25.05
2023-04-18T02:32:25.964Z,29.42
2023-04-18T02:37:28.799Z,34.30
2023-04-18T02:42:32.874Z,33.53
2023-04-18T02:47:43.840Z,33.45
2023-04-18T02:52:56.896Z,28.40
2023-04-18T02:58:09.139Z,34.30
2023-04-18T03:03:30.459Z,33.45
2023-04-18T03:08:44.470Z,40.33
2023-04-18T03:13:48.799Z,39.17
2023-04-18T03:18:52.300Z,43.00
2023-04-18T03:23:57.372Z,40.08
2023-04-18T03:29:02.904Z,42.35
2023-04-18T03:34:05.737Z,43.10
2023-04-18T03:39:09.407Z,46.03
2023-04-18T03:44:13.961Z,42.47
2023-04-18T03:49:18.753Z,43.45
2023-04-18T03:54:21.590Z,33.40
2023-04-18T03:59:26.847Z,44.58
2023-04-18T04:04:30.808Z,40.63
2023-04-18T04:09:35.719Z,36.92
2023-04-18T04:14:40.147Z,41.67
2023-04-18T04:19:43.171Z,42.95
2023-04-18T04:24:51.656Z,38.42
2023-04-18T04:30:02.537Z,41.17
2023-04-18T04:35:06.759Z,48.03
2023-04-18T04:40:10.906Z,38.72
2023-04-18T04:45:23.273Z,36.92
2023-04-18T04:50:28.289Z,42.13
2023-04-18T04:55:31.171Z,35.50
2023-04-18T05:00:35.854Z,43.28
2023-04-18T05:05:39.651Z,42.53
2023-04-18T05:10:43.291Z,41.47
2023-04-18T05:15:49.507Z,44.88
2023-04-18T05:20:52.285Z,41.22
2023-04-18T05:25:56.020Z,36.53
2023-04-18T05:31:02.924Z,39.38
2023-04-18T05:36:06.622Z,36.42
2023-04-18T05:41:09.406Z,32.13
2023-04-18T05:46:16.818Z,32.40
2023-04-18T05:51:19.696Z,34.60
2023-04-18T05:56:22.487Z,31.60
2023-04-18T06:01:27.792Z,32.60
2023-04-18T06:06:33.880Z,30.45
2023-04-18T06:11:36.897Z,31.42
2023-04-18T06:16:42.800Z,27.52
2023-04-18T06:21:46.891Z,24.42
2023-04-18T06:26:50.931Z,21.95
2023-04-18T06:31:55.955Z,27.45
2023-04-18T06:36:58.827Z,21.60
2023-04-18T06:42:02.363Z,24.13
2023-04-18T06:47:07.701Z,21.00
2023-04-18T06:52:10.448Z,27.60
2023-04-18T06:57:15.393Z,19.60
2023-04-18T07:02:21.124Z,19.27
2023-04-18T07:07:28.455Z,17.30
2023-04-18T07:12:36.960Z,19.33
2023-04-18T07:17:41.914Z,32.83
2023-04-18T07:22:45.972Z,20.17
2023-04-18T07:27:48.887Z,25.50
2023-04-18T07:32:54.023Z,17.90
2023-04-18T07:37:57.473Z,19.65
2023-04-18T07:43:01.007Z,16.77
2023-04-18T07:48:05.765Z,19.33
2023-04-18T07:53:09.070Z,17.95
2023-04-18T07:58:14.496Z,16.90
2023-04-18T08:03:18.729Z,16.30
2023-04-18T08:08:21.724Z,20.00
2023-04-18T08:13:25.939Z,28.38
2023-04-18T08:18:31.893Z,20.60
2023-04-18T08:23:34.953Z,24.08
2023-04-18T08:28:38.064Z,22.42
2023-04-18T08:33:42.417Z,16.70
2023-04-18T08:38:45.995Z,21.17
2023-04-18T08:43:49.116Z,28.70
2023-04-18T08:48:53.639Z,20.58
2023-04-18T08:53:57.320Z,21.50
2023-04-18T08:59:00.761Z,16.77
2023-04-18T09:04:06.413Z,22.02
2023-04-18T09:09:09.179Z,20.05
2023-04-18T09:14:25.878Z,19.20
2023-04-18T09:19:30.610Z,23.00
2023-04-18T09:24:35.588Z,21.60
2023-04-18T09:29:47.281Z,21.52
2023-04-18T09:34:54.328Z,23.63
2023-04-18T09:39:57.152Z,21.60
2023-04-18T09:45:05.399Z,26.42
2023-04-18T09:50:12.271Z,14.63
2023-04-18T09:55:17.183Z,22.33
2023-04-18T10:00:25.074Z,17.17
2023-04-18T10:05:33.676Z,18.30
2023-04-18T10:10:38.806Z,15.98
2023-04-18T10:15:44.380Z,16.73
2023-04-18T10:20:48.630Z,14.65
2023-04-18T10:25:51.897Z,13.48
2023-04-18T10:31:04.226Z,15.75
2023-04-18T10:36:18.641Z,16.55
2023-04-18T10:41:25.331Z,15.02
2023-04-18T10:46:32.203Z,13.05
2023-04-18T10:51:37.767Z,11.65
2023-04-18T10:56:40.606Z,14.93
2023-04-18T11:01:50.160Z,14.38
2023-04-18T11:06:55.956Z,12.25
2023-04-18T11:12:08.145Z,8.77
2023-04-18T11:17:19.801Z,9.07
2023-04-18T11:22:23.998Z,15.38
2023-04-18T11:27:31.084Z,13.55
2023-04-18T11:32:35.573Z,8.93
2023-04-18T11:37:41.965Z,16.48
2023-04-18T11:42:45.993Z,38.67
2023-04-18T11:47:49.167Z,13.57
2023-04-18T11:52:54.912Z,22.13
2023-04-18T11:57:59.133Z,10.13
2023-04-18T12:03:04.471Z,19.02
2023-04-18T12:08:13.854Z,12.85
2023-04-18T12:13:17.844Z,26.38
2023-04-18T12:18:21.458Z,17.13
2023-04-18T12:23:33.935Z,10.80
2023-04-18T12:28:36.921Z,12.23
2023-04-18T12:33:42.313Z,10.48
2023-04-18T12:38:49.215Z,14.82
2023-04-18T12:43:53.911Z,15.35
2023-04-18T12:48:57.720Z,13.57
2023-04-18T12:54:02.184Z,12.15
2023-04-18T12:59:05.035Z,15.55
2023-04-18T13:04:12.502Z,13.45
2023-04-18T13:09:17.547Z,13.98
2023-04-18T13:14:20.354Z,17.92
2023-04-18T13:19:24.034Z,12.30
2023-04-18T13:24:30.407Z,12.00
2023-04-18T13:34:45.800Z,12.10
2023-04-18T13:39:49.952Z,12.30
2023-04-18T13:44:54.099Z,13.15
2023-04-18T13:49:58.333Z,11.80
2023-04-18T13:55:02.896Z,17.15
2023-04-18T14:00:07.151Z,14.70
2023-04-18T14:05:17.453Z,17.23
2023-04-18T14:10:22.291Z,15.30
2023-04-18T14:15:26.785Z,15.75
2023-04-18T14:20:34.547Z,15.48
2023-04-18T14:25:39.725Z,14.57
2023-04-18T14:30:42.473Z,13.40
2023-04-18T14:35:46.342Z,13.10
2023-04-18T14:40:52.126Z,14.63
2023-04-18T14:45:58.430Z,12.98
2023-04-18T14:51:03.502Z,11.63
2023-04-18T14:56:09.468Z,15.98
2023-04-18T15:01:12.531Z,9.65
2023-04-18T15:06:15.523Z,10.00
2023-04-18T15:11:20.329Z,9.90
2023-04-18T15:16:23.222Z,12.93
2023-04-18T15:21:27.649Z,11.55
2023-04-18T15:26:33.214Z,11.27
2023-04-18T15:31:39.223Z,10.50
2023-04-18T15:36:42.455Z,11.88
2023-04-18T15:41:47.341Z,15.30
2023-04-18T15:46:50.876Z,12.63
2023-04-18T15:51:54.141Z,9.55
2023-04-18T15:56:58.572Z,10.65
2023-04-18T16:02:02.497Z,9.45
2023-04-18T16:07:06.335Z,7.10
2023-04-18T16:12:10.527Z,9.32
2023-04-18T16:17:13.246Z,8.90
2023-04-18T16:22:16.068Z,6.72
2023-04-18T16:27:20.445Z,9.40
2023-04-18T16:32:23.374Z,8.27
2023-04-18T16:37:26.474Z,13.07
2023-04-18T16:42:30.631Z,7.82
2023-04-18T16:47:33.451Z,8.60
2023-04-18T16:52:36.200Z,6.28
2023-04-18T16:57:41.435Z,8.05
2023-04-18T17:02:45.405Z,10.10
2023-04-18T17:07:49.802Z,10.57
2023-04-18T17:12:54.498Z,9.32
2023-04-18T17:18:00.638Z,10.02
2023-04-18T17:23:04.902Z,7.28
2023-04-18T17:28:09.481Z,16.40
2023-04-18T17:33:13.336Z,11.73
2023-04-18T17:38:16.092Z,14.45
2023-04-18T17:43:21.481Z,12.45
2023-04-18T17:48:25.986Z,10.73
2023-04-18T17:53:30.221Z,12.50
2023-04-18T17:58:36.661Z,11.57
2023-04-18T18:03:39.904Z,10.13
2023-04-18T18:08:44.258Z,14.00
2023-04-18T18:13:51.575Z,14.18
2023-04-18T18:23:57.173Z,15.45
2023-04-18T18:29:02.161Z,14.40
2023-04-18T18:34:05.807Z,14.43
2023-04-18T18:39:09.593Z,12.43
2023-04-18T18:44:14.600Z,17.48
2023-04-18T18:49:17.522Z,16.52
2023-04-18T18:54:21.164Z,11.82
2023-04-18T18:59:25.497Z,15.25
2023-04-18T19:04:29.242Z,15.88
2023-04-18T19:09:32.241Z,20.95
2023-04-18T19:14:36.360Z,15.07
2023-04-18T19:19:39.844Z,12.55
2023-04-18T19:24:43.421Z,16.42
2023-04-18T19:29:47.661Z,16.17
2023-04-18T19:34:51.069Z,14.40
2023-04-18T19:39:53.829Z,15.23
2023-04-18T19:44:59.498Z,17.70
2023-04-18T19:50:02.418Z,14.88
2023-04-18T19:55:05.818Z,17.77
2023-04-18T20:00:14.111Z,16.92
2023-04-18T20:05:19.075Z,15.38
2023-04-18T20:10:22.723Z,15.23
2023-04-18T20:15:30.303Z,15.52
2023-04-18T20:20:33.378Z,20.40
2023-04-18T20:25:36.288Z,15.30
2023-04-18T20:30:41.013Z,16.83
2023-04-18T20:35:44.458Z,18.88
2023-04-18T20:40:47.342Z,15.77
2023-04-18T20:45:51.887Z,18.33
2023-04-18T20:50:55.358Z,25.15
2023-04-18T20:55:58.645Z,18.50
2023-04-18T21:01:03.334Z,17.35
2023-04-18T21:06:06.624Z,17.70
2023-04-18T21:11:09.523Z,28.45
2023-04-18T21:16:13.672Z,14.32
2023-04-18T21:21:16.389Z,15.77
2023-04-18T21:26:19.150Z,16.95
2023-04-18T21:31:23.351Z,17.05
2023-04-18T21:36:27.919Z,14.77
2023-04-18T21:41:30.707Z,16.80
2023-04-18T21:46:34.788Z,16.17
2023-04-18T21:51:37.620Z,12.88
2023-04-18T21:56:40.404Z,16.83
2023-04-18T22:01:44.796Z,16.58
2023-04-18T22:06:47.629Z,13.60
2023-04-18T22:11:51.598Z,10.07
2023-04-18T22:16:55.837Z,13.82
2023-04-18T22:21:58.908Z,11.82
2023-04-18T22:27:02.778Z,14.07
2023-04-18T22:32:07.724Z,15.27
2023-04-18T22:37:10.515Z,14.38
2023-04-18T22:42:13.261Z,8.77
2023-04-18T22:47:17.427Z,9.43
2023-04-18T22:52:23.748Z,9.13
2023-04-18T22:57:26.612Z,8.70
2023-04-18T23:02:30.873Z,11.88
2023-04-18T23:07:34.001Z,14.88
2023-04-18T23:12:36.779Z,9.70
2023-04-18T23:17:40.919Z,10.75
2023-04-18T23:22:43.704Z,14.48
2023-04-18T23:27:46.850Z,11.20
2023-04-18T23:32:51.014Z,14.90
2023-04-18T23:37:53.739Z,13.48
2023-04-18T23:42:57.107Z,11.57
2023-04-18T23:48:01.299Z,15.52
2023-04-18T23:53:04.206Z,11.50
2023-04-18T23:58:06.915Z,12.98
